Time;durP1;ratioP1;P1;durP2;ratioP2;P2;SDS_P1;SDS_P2;PMS_P1;PMS_P2;Temp;Humidity;BMP_temperature;BMP_pressure;BME280_temperature;BME280_humidity;BME280_pressure;Samples;Min_cycle;Max_cycle;Signal;HPM_P1;HPM_P2
2022/04/22 00:00:51;;;;;;;7.87;4.60;;;13.50;49.80;;;;;;7376638;19;20754;-42
2022/04/22 00:03:20;;;;;;;5.73;4.27;;;13.70;49.40;;;;;;7379130;19;20392;-43
2022/04/22 00:05:53;;;;;;;6.00;5.07;;;13.50;49.60;;;;;;7376308;19;20380;-41
2022/04/22 00:08:22;;;;;;;4.23;3.70;;;13.60;49.80;;;;;;7376919;19;20364;-43
2022/04/22 00:13:33;;;;;;;5.77;4.80;;;13.70;49.50;;;;;;7372600;19;20407;-43
2022/04/22 00:16:04;;;;;;;5.60;4.50;;;13.50;49.80;;;;;;7375629;19;20456;-41
2022/04/22 00:18:34;;;;;;;6.00;4.23;;;13.60;49.70;;;;;;7364284;19;20992;-42
2022/04/22 00:21:08;;;;;;;4.83;4.20;;;13.50;50.60;;;;;;7372985;19;20388;-43
2022/04/22 00:23:40;;;;;;;7.00;4.57;;;13.30;50.20;;;;;;7374698;19;20375;-41
2022/04/22 00:26:12;;;;;;;7.73;4.40;;;13.50;50.40;;;;;;7374922;19;20459;-42
2022/04/22 00:28:44;;;;;;;5.87;4.53;;;13.40;50.40;;;;;;7375859;19;20375;-42
2022/04/22 00:31:19;;;;;;;4.97;4.47;;;13.50;50.20;;;;;;7374905;19;20929;-42
2022/04/22 00:33:53;;;;;;;7.47;5.00;;;13.60;50.00;;;;;;7376237;19;20393;-43
2022/04/22 00:36:25;;;;;;;8.83;5.60;;;13.40;50.40;;;;;;7376372;19;20503;-41
2022/04/22 00:39:01;;;;;;;6.87;4.37;;;13.50;50.50;;;;;;7371223;19;21334;-42
2022/04/22 00:41:32;;;;;;;4.60;4.20;;;13.40;50.60;;;;;;7368325;19;20903;-41
2022/04/22 00:44:01;;;;;;;6.93;4.60;;;13.50;50.40;;;;;;7374182;19;20375;-42
2022/04/22 00:46:30;;;;;;;7.67;5.03;;;13.50;50.30;;;;;;7376151;19;20380;-41
2022/04/22 00:49:05;;;;;;;6.90;4.97;;;13.50;50.30;;;;;;7373035;19;20951;-42
2022/04/22 00:51:41;;;;;;;5.10;4.27;;;13.50;50.50;;;;;;7371084;19;20928;-41
2022/04/22 00:54:14;;;;;;;12.50;4.20;;;13.20;51.10;;;;;;7376430;19;20384;-41
2022/04/22 00:56:44;;;;;;;5.97;4.90;;;13.00;51.60;;;;;;7372842;19;20415;-42
2022/04/22 00:59:14;;;;;;;5.07;4.43;;;12.80;52.00;;;;;;7373878;19;21055;-41
2022/04/22 01:01:45;;;;;;;6.93;5.40;;;12.50;53.20;;;;;;7375277;19;20845;-41
2022/04/22 01:09:51;;;;;;;5.70;4.67;;;12.60;53.20;;;;;;7375116;19;20777;-41
2022/04/22 01:12:23;;;;;;;7.20;5.20;;;12.60;53.20;;;;;;7376022;19;20376;-42
2022/04/22 01:14:56;;;;;;;6.40;4.80;;;12.60;53.70;;;;;;7373256;19;20379;-42
2022/04/22 01:17:26;;;;;;;8.97;5.47;;;12.80;52.70;;;;;;7375662;19;20813;-41
2022/04/22 01:19:57;;;;;;;8.30;5.30;;;12.70;52.80;;;;;;7371362;19;20391;-41
2022/04/22 01:22:31;;;;;;;6.13;5.03;;;12.70;53.10;;;;;;7371125;19;20372;-42
2022/04/22 01:25:03;;;;;;;5.50;4.97;;;12.70;53.40;;;;;;7370825;19;20408;-43
2022/04/22 01:27:33;;;;;;;7.57;5.23;;;12.50;53.60;;;;;;7373580;19;20745;-41
2022/04/22 01:30:07;;;;;;;5.93;5.27;;;12.50;53.70;;;;;;7372016;19;20368;-41
2022/04/22 01:32:37;;;;;;;8.03;5.87;;;12.50;53.80;;;;;;7372784;19;20420;-42
2022/04/22 01:35:09;;;;;;;7.80;5.70;;;12.30;54.30;;;;;;7376022;19;20402;-41
2022/04/22 01:37:43;;;;;;;7.77;5.80;;;12.20;54.40;;;;;;7376712;19;20380;-41
2022/04/22 01:40:14;;;;;;;9.30;5.47;;;12.00;55.30;;;;;;7373556;19;20355;-41
2022/04/22 01:42:44;;;;;;;6.33;5.50;;;12.00;55.50;;;;;;7372303;19;20372;-41
2022/04/22 01:45:16;;;;;;;6.77;5.70;;;12.00;55.10;;;;;;7370868;19;20927;-41
2022/04/22 01:47:45;;;;;;;8.43;6.17;;;11.90;55.60;;;;;;7373355;19;20383;-42
2022/04/22 01:50:18;;;;;;;9.20;6.23;;;11.80;56.10;;;;;;7376466;19;20387;-42
2022/04/22 01:52:50;;;;;;;8.20;5.93;;;11.70;56.30;;;;;;7375583;19;20375;-41
2022/04/22 01:55:19;;;;;;;7.50;6.07;;;11.70;56.60;;;;;;7366230;19;20423;-42
2022/04/22 01:57:49;;;;;;;7.00;6.20;;;11.70;56.30;;;;;;7371521;19;20394;-42
2022/04/22 02:00:19;;;;;;;7.83;6.10;;;11.70;56.30;;;;;;7374767;19;21003;-41
2022/04/22 02:02:50;;;;;;;8.10;6.43;;;12.00;55.80;;;;;;7377160;19;20379;-42
2022/04/22 02:05:20;;;;;;;8.33;6.53;;;11.90;55.80;;;;;;7380897;19;20376;-42
2022/04/22 02:07:52;;;;;;;10.57;6.40;;;11.70;56.30;;;;;;7377747;19;20376;-42
2022/04/22 02:10:24;;;;;;;8.90;5.50;;;11.60;56.70;;;;;;7382270;19;20371;-39
2022/04/22 02:12:54;;;;;;;8.27;6.10;;;11.60;57.00;;;;;;7380740;19;20476;-39
2022/04/22 02:15:24;;;;;;;9.03;6.20;;;11.50;57.00;;;;;;7379027;19;20372;-39
2022/04/22 02:17:59;;;;;;;8.80;6.20;;;11.30;57.70;;;;;;7375513;19;20423;-40
2022/04/22 02:20:30;;;;;;;10.17;6.20;;;11.10;58.20;;;;;;7378303;19;20985;-39
2022/04/22 02:23:05;;;;;;;8.13;5.83;;;11.10;58.40;;;;;;7381797;19;20480;-39
2022/04/22 02:25:37;;;;;;;7.70;6.37;;;11.00;58.50;;;;;;7376749;19;20387;-41
2022/04/22 02:30:49;;;;;;;8.37;6.50;;;10.90;59.00;;;;;;7381072;19;20388;-41
2022/04/22 02:33:20;;;;;;;8.47;6.87;;;10.80;59.50;;;;;;7378561;19;20405;-41
2022/04/22 02:35:50;;;;;;;8.20;6.50;;;10.70;59.80;;;;;;7380082;19;21390;-40
2022/04/22 02:38:25;;;;;;;10.17;7.20;;;10.70;59.80;;;;;;7378638;19;20905;-40
2022/04/22 02:46:20;;;;;;;8.90;6.47;;;10.50;60.80;;;;;;7380112;19;20413;-40
2022/04/22 02:48:55;;;;;;;9.47;7.33;;;10.40;61.20;;;;;;7378622;19;20636;-40
2022/04/22 02:51:30;;;;;;;9.30;7.10;;;10.10;61.90;;;;;;7379911;19;20376;-40
2022/04/22 02:54:05;;;;;;;11.20;8.03;;;10.20;62.20;;;;;;7383389;19;20367;-41
2022/04/22 02:56:35;;;;;;;11.63;8.43;;;10.20;62.00;;;;;;7376853;19;20701;-41
2022/04/22 02:59:05;;;;;;;9.90;7.43;;;10.10;62.50;;;;;;7378885;19;20403;-42
2022/04/22 03:01:43;;;;;;;9.10;7.70;;;10.00;63.30;;;;;;7377025;19;20367;-40
2022/04/22 03:04:12;;;;;;;12.00;8.13;;;9.90;64.50;;;;;;7380805;19;20372;-40
2022/04/22 03:06:42;;;;;;;9.53;7.83;;;10.00;63.50;;;;;;7376090;19;20794;-41
2022/04/22 03:09:16;;;;;;;12.07;8.00;;;9.80;65.10;;;;;;7374636;19;20427;-40
2022/04/22 03:11:48;;;;;;;11.07;8.10;;;9.50;66.60;;;;;;7377671;19;20368;-41
2022/04/22 03:14:20;;;;;;;10.37;7.47;;;9.50;67.20;;;;;;7377515;19;20384;-40
2022/04/22 03:16:50;;;;;;;10.70;8.33;;;9.60;67.40;;;;;;7375994;19;20359;-39
2022/04/22 03:19:19;;;;;;;9.87;7.20;;;9.60;67.20;;;;;;7373087;19;20452;-41
2022/04/22 03:21:51;;;;;;;11.03;7.27;;;9.60;67.10;;;;;;7377738;19;20368;-41
2022/04/22 03:24:23;;;;;;;11.50;8.40;;;9.70;66.70;;;;;;7378557;19;20382;-39
2022/04/22 03:26:55;;;;;;;14.30;8.47;;;9.40;67.70;;;;;;7376272;19;20369;-41
2022/04/22 03:29:26;;;;;;;10.02;8.13;;;9.30;68.70;;;;;;7376107;19;20355;-39
2022/04/22 03:31:56;;;;;;;13.50;9.10;;;9.30;69.10;;;;;;7378301;19;20155;-40
2022/04/22 03:34:25;;;;;;;10.40;8.20;;;9.20;69.40;;;;;;7377578;19;20379;-40
2022/04/22 03:36:55;;;;;;;11.33;7.97;;;9.20;69.60;;;;;;7378589;19;20352;-40
2022/04/22 03:39:27;;;;;;;11.57;8.40;;;9.20;69.60;;;;;;7381155;19;21026;-39
2022/04/22 03:41:59;;;;;;;10.40;8.17;;;9.30;69.40;;;;;;7378990;19;20126;-40
2022/04/22 03:44:28;;;;;;;12.37;8.90;;;9.20;69.80;;;;;;7377910;19;20380;-40
2022/04/22 03:47:03;;;;;;;14.65;8.90;;;9.10;70.30;;;;;;7377120;19;20366;-41
2022/04/22 03:49:34;;;;;;;12.93;9.33;;;9.20;70.10;;;;;;7378295;19;20136;-39
2022/04/22 03:52:03;;;;;;;11.80;9.30;;;9.30;69.60;;;;;;7376283;19;20372;-40
2022/04/22 03:54:37;;;;;;;11.50;8.60;;;9.20;69.70;;;;;;7379072;19;20760;-41
2022/04/22 03:59:54;;;;;;;13.23;9.20;;;9.10;70.70;;;;;;7378539;19;20436;-41
2022/04/22 04:02:28;;;;;;;12.18;9.38;;;9.20;70.40;;;;;;7376861;19;20131;-41
2022/04/22 04:04:57;;;;;;;14.07;9.57;;;9.20;70.30;;;;;;7379607;19;20131;-39
2022/04/22 04:07:27;;;;;;;13.63;9.40;;;9.10;70.50;;;;;;7377261;19;20738;-41
2022/04/22 04:18:07;;;;;;;14.97;10.50;;;8.80;72.40;;;;;;7376828;19;20611;-41
2022/04/22 04:23:25;;;;;;;14.85;10.85;;;8.90;72.60;;;;;;7379970;19;20652;-41
2022/04/22 04:25:59;;;;;;;15.15;10.80;;;8.70;73.90;;;;;;7372358;19;20131;-41
2022/04/22 04:28:33;;;;;;;16.65;11.38;;;8.80;73.30;;;;;;7375054;19;20159;-41
2022/04/22 04:31:02;;;;;;;17.60;11.50;;;8.80;73.40;;;;;;7373194;19;20158;-41
2022/04/22 04:33:32;;;;;;;16.77;12.00;;;8.70;73.90;;;;;;7372063;19;20138;-39
2022/04/22 04:36:02;;;;;;;21.13;14.15;;;8.80;73.80;;;;;;7375813;19;20242;-40
2022/04/22 04:38:31;;;;;;;16.47;12.20;;;8.90;73.00;;;;;;7370872;19;20144;-40
2022/04/22 04:41:07;;;;;;;16.90;11.50;;;8.90;72.80;;;;;;7377068;19;20372;-42
2022/04/22 04:43:38;;;;;;;18.77;11.90;;;9.10;72.20;;;;;;7375217;19;20373;-41
2022/04/22 04:46:08;;;;;;;15.00;11.60;;;9.00;72.30;;;;;;7368430;19;20384;-44
2022/04/22 04:48:38;;;;;;;15.50;10.60;;;9.10;71.90;;;;;;7373755;19;20805;-43
2022/04/22 04:51:10;;;;;;;17.40;11.60;;;9.00;72.20;;;;;;7376099;19;20778;-43
2022/04/22 04:53:42;;;;;;;16.40;11.40;;;8.90;72.80;;;;;;7375911;19;20367;-44
2022/04/22 04:56:14;;;;;;;13.93;11.37;;;8.90;73.40;;;;;;7371203;19;20391;-43
2022/04/22 04:58:45;;;;;;;16.40;12.00;;;8.80;74.30;;;;;;7369401;19;20379;-42
2022/04/22 05:01:15;;;;;;;19.30;12.68;;;8.70;74.90;;;;;;7373107;19;20214;-44
2022/04/22 05:03:49;;;;;;;16.80;11.70;;;8.60;76.20;;;;;;7373510;19;20134;-44
2022/04/22 05:06:19;;;;;;;20.85;14.15;;;8.30;77.10;;;;;;7377158;19;20127;-44
2022/04/22 05:08:51;;;;;;;21.42;14.18;;;8.20;78.90;;;;;;7371117;19;20128;-44
2022/04/22 05:11:23;;;;;;;24.90;15.05;;;7.90;80.60;;;;;;7371626;19;20908;-37
2022/04/22 05:13:53;;;;;;;21.55;14.00;;;8.00;80.80;;;;;;7373719;19;20131;-37
2022/04/22 05:16:22;;;;;;;19.88;13.55;;;8.10;80.90;;;;;;7374608;19;20139;-35
2022/04/22 05:18:54;;;;;;;20.88;14.55;;;8.10;80.90;;;;;;7373292;19;20174;-37
2022/04/22 05:21:26;;;;;;;21.83;13.90;;;8.00;80.80;;;;;;7374696;19;20599;-37
2022/04/22 05:23:55;;;;;;;20.80;14.57;;;7.80;83.10;;;;;;7375735;19;20136;-37
2022/04/22 05:26:27;;;;;;;20.90;14.30;;;8.10;82.50;;;;;;7367404;19;20384;-37
2022/04/22 05:28:56;;;;;;;20.27;14.00;;;8.10;82.20;;;;;;7372129;19;20228;-38
2022/04/22 05:34:10;;;;;;;26.40;15.43;;;7.90;83.90;;;;;;7368176;19;20141;-37
2022/04/22 05:36:39;;;;;;;23.65;15.13;;;8.00;83.80;;;;;;7369132;19;20128;-37
2022/04/22 05:39:10;;;;;;;22.90;15.13;;;8.10;83.90;;;;;;7373438;19;20135;-35
2022/04/22 05:41:44;;;;;;;25.13;15.75;;;8.40;83.10;;;;;;7375508;19;20598;-43
2022/04/22 05:44:14;;;;;;;23.98;15.50;;;8.60;81.70;;;;;;7369765;19;20146;-42
2022/04/22 05:46:43;;;;;;;24.52;17.50;;;8.90;80.10;;;;;;7370379;19;20370;-41
2022/04/22 05:49:13;;;;;;;26.98;16.50;;;9.60;77.00;;;;;;7368821;19;20684;-42
2022/04/22 05:51:45;;;;;;;24.93;16.23;;;9.50;75.90;;;;;;7373826;19;21018;-43
2022/04/22 05:54:17;;;;;;;26.23;17.57;;;9.60;76.00;;;;;;7371241;19;21253;-41
2022/04/22 05:56:49;;;;;;;24.52;17.50;;;10.10;72.60;;;;;;7373011;19;20359;-42
2022/04/22 05:59:18;;;;;;;24.95;17.48;;;10.40;70.60;;;;;;7371384;19;21068;-42
2022/04/22 06:01:50;;;;;;;24.40;18.03;;;10.80;69.00;;;;;;7368384;19;20490;-41
2022/04/22 06:04:20;;;;;;;25.70;19.10;;;11.20;66.90;;;;;;7374638;19;20430;-41
2022/04/22 06:06:49;;;;;;;24.33;16.83;;;11.10;66.30;;;;;;7363946;19;20783;-44
2022/04/22 06:12:03;;;;;;;21.93;15.90;;;10.90;66.80;;;;;;7362287;19;21957;-36
2022/04/22 06:14:32;;;;;;;27.10;18.47;;;10.80;66.80;;;;;;7368936;19;20367;-36
2022/04/22 06:17:05;;;;;;;23.70;15.07;;;11.00;66.80;;;;;;7373024;19;20359;-36
2022/04/22 06:19:39;;;;;;;26.13;16.53;;;11.10;66.70;;;;;;7372231;19;21035;-36
2022/04/22 06:22:11;;;;;;;25.10;16.40;;;11.30;65.50;;;;;;7374534;19;20363;-36
2022/04/22 06:24:40;;;;;;;22.27;15.67;;;11.50;64.20;;;;;;7374148;19;20917;-37
2022/04/22 06:27:15;;;;;;;21.17;15.33;;;11.60;64.40;;;;;;7370987;19;20406;-35
2022/04/22 06:29:48;;;;;;;23.30;16.10;;;11.60;63.50;;;;;;7373835;19;20419;-35
2022/04/22 06:32:21;;;;;;;25.10;16.80;;;11.60;64.20;;;;;;7375598;19;20412;-36
2022/04/22 06:34:56;;;;;;;22.23;15.73;;;11.70;63.50;;;;;;7375805;19;20367;-36
2022/04/22 06:37:26;;;;;;;20.63;14.40;;;11.70;63.60;;;;;;7375201;19;20364;-36
2022/04/22 06:48:06;;;;;;;20.90;15.47;;;12.50;60.00;;;;;;7376757;19;21271;-36
2022/04/22 06:50:39;;;;;;;22.63;16.13;;;12.80;59.20;;;;;;7382272;19;21176;-47
2022/04/22 06:53:09;;;;;;;21.50;15.37;;;12.90;58.70;;;;;;7381432;19;21279;-44
2022/04/22 06:55:39;;;;;;;19.50;14.83;;;12.90;58.30;;;;;;7382869;19;20372;-43
2022/04/22 06:58:14;;;;;;;22.83;15.60;;;13.10;57.90;;;;;;7380151;19;20752;-45
2022/04/22 07:00:44;;;;;;;25.57;15.60;;;13.40;57.20;;;;;;7383619;19;20376;-44
2022/04/22 07:03:18;;;;;;;21.33;16.17;;;13.50;56.70;;;;;;7379979;19;20392;-44
2022/04/22 07:05:51;;;;;;;20.83;15.47;;;13.30;56.70;;;;;;7381120;19;21546;-44
2022/04/22 07:08:23;;;;;;;19.87;15.67;;;13.20;56.80;;;;;;7379175;19;20760;-44
2022/04/22 07:10:55;;;;;;;20.60;14.80;;;13.40;57.20;;;;;;7381387;19;20937;-44
2022/04/22 07:13:32;;;;;;;21.57;15.50;;;13.60;56.60;;;;;;7381555;19;20905;-44
2022/04/22 07:16:04;;;;;;;20.67;14.97;;;13.90;56.20;;;;;;7379263;19;20384;-44
2022/04/22 07:18:37;;;;;;;20.33;14.00;;;14.00;55.20;;;;;;7378556;19;20461;-45
2022/04/22 07:21:09;;;;;;;19.17;13.73;;;14.10;55.00;;;;;;7367246;19;20981;-36
2022/04/22 07:23:39;;;;;;;20.97;15.33;;;14.40;54.50;;;;;;7374573;19;20372;-36
2022/04/22 07:26:11;;;;;;;20.40;15.57;;;14.50;53.90;;;;;;7377239;19;20436;-37
2022/04/22 07:28:48;;;;;;;21.10;15.80;;;14.50;53.50;;;;;;7368369;19;20388;-37
2022/04/22 07:31:21;;;;;;;20.70;15.60;;;14.70;53.50;;;;;;7378179;19;20385;-37
2022/04/22 07:33:51;;;;;;;19.67;16.13;;;14.90;53.20;;;;;;7375054;19;20473;-36
2022/04/22 07:36:21;;;;;;;20.27;15.43;;;15.10;52.70;;;;;;7379091;19;20423;-36
2022/04/22 07:38:56;;;;;;;21.33;15.57;;;15.30;52.20;;;;;;7380893;19;20384;-36
2022/04/22 07:41:31;;;;;;;20.97;15.20;;;15.40;51.60;;;;;;7377186;19;21994;-36
2022/04/22 07:46:58;;;;;;;19.27;15.00;;;15.30;51.60;;;;;;7378430;19;20384;-36
2022/04/22 07:49:32;;;;;;;19.87;14.97;;;15.40;51.80;;;;;;7375457;19;20388;-42
2022/04/22 07:52:02;;;;;;;17.80;13.10;;;15.70;51.50;;;;;;7378171;19;20537;-42
2022/04/22 07:54:31;;;;;;;19.60;14.10;;;15.90;50.60;;;;;;7380124;19;20418;-42
2022/04/22 07:57:03;;;;;;;17.37;13.90;;;16.20;50.30;;;;;;7380256;19;20953;-43
2022/04/22 07:59:35;;;;;;;19.53;13.97;;;15.80;50.10;;;;;;7378447;19;21005;-43
2022/04/22 08:02:06;;;;;;;20.87;16.90;;;16.00;50.20;;;;;;7372551;19;20384;-44
2022/04/22 08:04:37;;;;;;;20.60;14.70;;;16.20;49.60;;;;;;7376047;19;20769;-44
2022/04/22 08:07:09;;;;;;;19.07;15.33;;;16.50;49.10;;;;;;7377903;19;20905;-44
2022/04/22 08:09:39;;;;;;;23.77;16.20;;;16.50;49.10;;;;;;7375374;19;20423;-44
2022/04/22 08:12:12;;;;;;;17.97;15.17;;;16.60;49.20;;;;;;7370974;19;20904;-45
2022/04/22 08:14:44;;;;;;;23.77;17.27;;;16.60;48.50;;;;;;7375854;19;20376;-44
2022/04/22 08:17:16;;;;;;;19.73;15.10;;;16.90;48.50;;;;;;7378276;19;20376;-43
2022/04/22 08:19:47;;;;;;;19.00;14.10;;;17.30;48.00;;;;;;7375832;19;20384;-35
2022/04/22 08:22:20;;;;;;;19.17;14.03;;;17.60;47.10;;;;;;7377580;19;20392;-35
2022/04/22 08:24:50;;;;;;;20.17;13.77;;;17.80;46.40;;;;;;7370843;19;20376;-35
2022/04/22 08:27:22;;;;;;;16.77;14.33;;;17.90;45.70;;;;;;7375578;19;20369;-35
2022/04/22 08:29:56;;;;;;;16.50;13.67;;;18.20;45.10;;;;;;7376286;19;20724;-36
2022/04/22 08:32:26;;;;;;;18.33;14.37;;;18.40;44.80;;;;;;7378460;19;20368;-35
2022/04/22 08:34:55;;;;;;;16.10;13.57;;;18.60;44.40;;;;;;7377061;19;20729;-36
2022/04/22 08:37:25;;;;;;;18.33;16.37;;;19.00;44.10;;;;;;7376267;19;20364;-36
2022/04/22 08:39:55;;;;;;;21.50;14.50;;;19.30;43.30;;;;;;7379555;19;20387;-38
2022/04/22 08:42:26;;;;;;;16.83;14.27;;;19.30;43.20;;;;;;7375391;19;20386;-38
2022/04/22 08:44:59;;;;;;;20.10;14.83;;;19.40;42.70;;;;;;7377549;19;20404;-38
2022/04/22 08:50:33;;;;;;;14.20;12.70;;;20.00;40.80;;;;;;7372960;19;20392;-39
2022/04/22 08:53:07;;;;;;;14.83;13.17;;;20.30;40.80;;;;;;7377251;19;20518;-39
2022/04/22 08:55:40;;;;;;;17.47;15.57;;;20.30;40.80;;;;;;7379404;19;20402;-39
2022/04/22 08:58:12;;;;;;;15.40;13.50;;;20.40;40.20;;;;;;7379034;19;20937;-39
2022/04/22 09:00:45;;;;;;;15.90;13.73;;;20.40;40.10;;;;;;7376495;19;20376;-45
2022/04/22 09:03:20;;;;;;;17.57;14.57;;;20.60;40.10;;;;;;7377895;19;20372;-45
2022/04/22 09:05:51;;;;;;;16.80;15.00;;;20.90;39.80;;;;;;7374557;19;20376;-45
2022/04/22 09:08:28;;;;;;;15.30;13.50;;;21.20;39.20;;;;;;7375391;19;20375;-45
2022/04/22 09:11:04;;;;;;;15.83;14.23;;;21.60;38.70;;;;;;7375199;19;20949;-45
2022/04/22 09:13:39;;;;;;;16.17;14.57;;;22.00;38.20;;;;;;7377519;19;20376;-45
2022/04/22 09:16:21;;;;;;;14.63;13.13;;;22.20;37.10;;;;;;7374320;19;20940;-44
2022/04/22 09:19:00;;;;;;;14.60;13.10;;;22.70;36.10;;;;;;7372923;19;21117;-45
2022/04/22 09:21:30;;;;;;;13.63;12.10;;;23.00;36.30;;;;;;7375468;19;20537;-43
2022/04/22 09:24:13;;;;;;;15.07;13.23;;;23.60;35.50;;;;;;7375248;19;20408;-44
2022/04/22 09:26:43;;;;;;;15.37;13.80;;;24.60;33.90;;;;;;7377588;19;20455;-43
2022/04/22 09:29:15;;;;;;;13.63;12.20;;;24.30;33.70;;;;;;7375738;19;20376;-43
2022/04/22 09:31:51;;;;;;;13.47;12.03;;;24.50;33.70;;;;;;7378164;19;20384;-43
2022/04/22 09:34:37;;;;;;;15.07;13.60;;;25.10;32.40;;;;;;7374713;19;20372;-44
2022/04/22 09:42:49;;;;;;;13.17;11.97;;;24.60;31.60;;;;;;7376040;19;20388;-44
2022/04/22 09:45:23;;;;;;;14.97;13.57;;;24.60;32.90;;;;;;7376277;19;20389;-44
2022/04/22 09:48:01;;;;;;;13.37;12.00;;;25.30;31.60;;;;;;7376352;19;20376;-44
2022/04/22 09:50:43;;;;;;;13.90;12.40;;;25.80;31.20;;;;;;7373280;19;20383;-44
2022/04/22 09:53:17;;;;;;;13.23;11.93;;;26.80;29.90;;;;;;7375514;19;20368;-43
2022/04/22 09:55:54;;;;;;;14.33;13.03;;;27.10;29.50;;;;;;7375711;19;20397;-43
2022/04/22 09:58:28;;;;;;;12.83;11.70;;;27.60;28.60;;;;;;7375065;19;20384;-43
2022/04/22 10:01:03;;;;;;;13.47;12.20;;;27.90;28.50;;;;;;7375977;19;20379;-44
2022/04/22 10:03:37;;;;;;;13.83;12.53;;;28.30;27.90;;;;;;7373904;19;21039;-43
2022/04/22 10:06:09;;;;;;;14.97;13.57;;;28.60;27.70;;;;;;7375804;19;20384;-45
2022/04/22 10:08:40;;;;;;;14.10;12.80;;;28.40;27.60;;;;;;7370998;19;20373;-44
2022/04/22 10:11:10;;;;;;;13.77;12.37;;;28.50;28.00;;;;;;7370857;19;20376;-44
2022/04/22 10:13:44;;;;;;;14.40;13.10;;;28.00;28.00;;;;;;7371323;19;20380;-44
2022/04/22 10:16:14;;;;;;;14.03;12.83;;;27.10;28.30;;;;;;7372973;19;20368;-45
2022/04/22 10:18:50;;;;;;;13.60;12.20;;;27.00;28.50;;;;;;7370951;19;20432;-44
2022/04/22 10:21:23;;;;;;;13.47;11.57;;;27.20;28.60;;;;;;7372936;19;20376;-44
2022/04/22 10:23:56;;;;;;;14.50;13.10;;;27.80;28.20;;;;;;7380102;19;20777;-44
2022/04/22 10:26:29;;;;;;;12.07;10.87;;;28.50;27.10;;;;;;7375773;19;20793;-44
2022/04/22 10:29:00;;;;;;;14.53;13.13;;;28.90;26.90;;;;;;7375621;19;20372;-44
2022/04/22 10:31:33;;;;;;;13.77;12.57;;;29.60;26.30;;;;;;7376444;19;20380;-44
2022/04/22 10:34:11;;;;;;;12.17;11.07;;;30.60;25.60;;;;;;7379329;19;20379;-44
2022/04/22 10:36:41;;;;;;;12.57;11.47;;;30.90;25.00;;;;;;7377838;19;20688;-44
2022/04/22 10:39:10;;;;;;;12.43;11.40;;;30.80;25.20;;;;;;7375238;19;20395;-44
2022/04/22 10:41:49;;;;;;;12.27;11.23;;;30.80;24.80;;;;;;7378730;19;20368;-44
2022/04/22 10:47:17;;;;;;;13.23;12.10;;;29.80;26.00;;;;;;7379057;19;20395;-44
2022/04/22 10:49:50;;;;;;;11.47;10.37;;;30.40;25.50;;;;;;7375519;19;21433;-45
2022/04/22 10:52:23;;;;;;;12.10;10.90;;;30.70;25.10;;;;;;7377384;19;20382;-44
2022/04/22 10:55:12;;;;;;;12.13;11.03;;;30.60;25.20;;;;;;7374466;19;20753;-44
2022/04/22 10:57:43;;;;;;;12.93;11.83;;;30.60;24.30;;;;;;7380590;19;20364;-44
2022/04/22 11:00:31;;;;;;;13.10;11.80;;;30.70;24.80;;;;;;7373507;19;20387;-44
2022/04/22 11:03:18;;;;;;;11.83;10.63;;;29.90;25.70;;;;;;7368863;19;20384;-46
2022/04/22 11:05:52;;;;;;;13.17;11.87;;;30.50;25.30;;;;;;7375235;19;20971;-46
2022/04/22 11:08:37;;;;;;;12.87;10.40;;;29.90;25.40;;;;;;7374563;19;20371;-44
2022/04/22 11:11:13;;;;;;;12.27;11.07;;;29.90;25.80;;;;;;7372736;19;20377;-44
2022/04/22 11:13:45;;;;;;;14.50;13.20;;;29.90;25.60;;;;;;7375354;19;20941;-44
2022/04/22 11:16:26;;;;;;;12.07;10.97;;;28.70;26.20;;;;;;7374096;19;20413;-45
2022/04/22 11:19:15;;;;;;;11.23;10.00;;;28.60;27.00;;;;;;7372262;19;20428;-44
2022/04/22 11:21:50;;;;;;;11.20;10.10;;;29.40;26.80;;;;;;7372808;19;20376;-44
2022/04/22 11:24:23;;;;;;;10.93;9.83;;;29.60;26.30;;;;;;7372199;19;20372;-45
2022/04/22 11:26:53;;;;;;;9.57;8.77;;;30.60;25.20;;;;;;7371556;19;20837;-45
2022/04/22 11:29:23;;;;;;;12.47;11.00;;;31.10;24.60;;;;;;7376236;19;20417;-45
2022/04/22 11:32:05;;;;;;;12.77;11.67;;;30.90;24.80;;;;;;7373362;19;20411;-45
2022/04/22 11:35:09;;;;;;;13.37;12.13;;;30.80;24.90;;;;;;7369309;19;20748;-47
2022/04/22 11:37:42;;;;;;;11.60;10.50;;;29.30;25.90;;;;;;7376431;19;20367;-45
2022/04/22 11:40:21;;;;;;;14.00;10.60;;;29.30;26.10;;;;;;7366832;19;20367;-44
2022/04/22 11:42:59;;;;;;;11.63;10.53;;;30.50;25.80;;;;;;7373133;19;20412;-44
2022/04/22 11:45:31;;;;;;;12.80;11.50;;;31.90;24.50;;;;;;7377573;19;20379;-44
2022/04/22 11:48:09;;;;;;;13.53;12.33;;;31.80;24.30;;;;;;7376337;19;20377;-43
2022/04/22 11:50:43;;;;;;;11.57;10.53;;;30.60;24.80;;;;;;7367198;19;20972;-44
2022/04/22 11:53:19;;;;;;;14.10;9.63;;;30.50;25.00;;;;;;7370997;19;20403;-45
2022/04/22 11:55:50;;;;;;;10.77;9.77;;;31.20;24.60;;;;;;7375144;19;20388;-44
2022/04/22 11:58:24;;;;;;;10.07;9.20;;;31.60;24.10;;;;;;7374294;19;20854;-44
2022/04/22 12:06:26;;;;;;;10.20;9.20;;;32.30;22.90;;;;;;7376752;19;20380;-46
2022/04/22 12:09:03;;;;;;;11.00;10.03;;;32.00;23.30;;;;;;7374214;19;20379;-45
2022/04/22 12:11:42;;;;;;;10.70;9.90;;;31.90;23.40;;;;;;7368563;19;20376;-45
2022/04/22 12:14:23;;;;;;;10.50;9.50;;;31.30;24.10;;;;;;7374290;19;20379;-45
2022/04/22 12:16:59;;;;;;;13.17;11.97;;;31.50;24.00;;;;;;7368900;19;20372;-44
2022/04/22 12:19:31;;;;;;;8.77;7.97;;;31.30;24.00;;;;;;7370458;19;20504;-45
2022/04/22 12:22:01;;;;;;;9.40;8.60;;;31.30;24.40;;;;;;7368183;19;20395;-44
2022/04/22 12:24:36;;;;;;;11.37;10.27;;;31.90;23.80;;;;;;7377746;19;20388;-45
2022/04/22 12:27:22;;;;;;;8.70;7.90;;;31.80;23.50;;;;;;7373074;19;20375;-45
2022/04/22 12:30:02;;;;;;;10.70;9.70;;;30.80;25.00;;;;;;7372136;19;20408;-45
2022/04/22 12:32:34;;;;;;;11.37;10.33;;;31.30;24.30;;;;;;7371210;19;20450;-44
2022/04/22 12:35:15;;;;;;;9.60;8.70;;;30.80;24.50;;;;;;7372794;19;20380;-45
2022/04/22 12:37:49;;;;;;;11.30;10.23;;;31.80;23.70;;;;;;7370926;19;20379;-44
2022/04/22 12:40:26;;;;;;;10.73;9.73;;;32.00;23.50;;;;;;7376423;19;20383;-44
2022/04/22 12:42:55;;;;;;;11.73;10.67;;;31.50;23.90;;;;;;7366936;19;20451;-45
2022/04/22 12:53:38;;;;;;;7.83;7.13;;;32.60;22.90;;;;;;7374641;19;20395;-45
2022/04/22 12:56:12;;;;;;;8.37;7.67;;;32.30;23.60;;;;;;7370854;19;20372;-49
2022/04/22 12:58:55;;;;;;;10.83;9.40;;;31.90;23.70;;;;;;7368024;19;20643;-48
2022/04/22 13:01:32;;;;;;;10.10;9.10;;;31.50;24.60;;;;;;7373911;19;20376;-48
2022/04/22 13:04:05;;;;;;;7.80;6.90;;;31.60;23.80;;;;;;7368911;19;20416;-48
2022/04/22 13:06:44;;;;;;;9.80;8.87;;;32.20;23.60;;;;;;7366540;19;20797;-48
2022/04/22 13:09:15;;;;;;;8.50;7.40;;;31.70;23.70;;;;;;7365758;19;21017;-49
2022/04/22 13:11:52;;;;;;;8.17;7.37;;;32.00;23.50;;;;;;7373382;19;20388;-40
2022/04/22 13:14:22;;;;;;;9.37;8.53;;;32.40;23.10;;;;;;7375478;19;20930;-40
2022/04/22 13:16:52;;;;;;;8.37;7.57;;;32.30;22.80;;;;;;7353669;19;20449;-39
2022/04/22 13:19:22;;;;;;;11.10;8.03;;;32.10;23.30;;;;;;7371894;19;20984;-39
2022/04/22 13:21:53;;;;;;;7.53;6.73;;;30.60;24.10;;;;;;7374894;19;20376;-39
2022/04/22 13:24:25;;;;;;;9.07;8.00;;;29.70;24.90;;;;;;7377105;19;20376;-39
2022/04/22 13:27:01;;;;;;;9.60;8.70;;;29.10;25.50;;;;;;7374044;19;21047;-40
2022/04/22 13:29:33;;;;;;;10.13;9.23;;;29.00;26.00;;;;;;7375853;19;20948;-39
2022/04/22 13:32:03;;;;;;;11.83;10.63;;;28.30;26.40;;;;;;7373347;19;20811;-39
2022/04/22 13:34:32;;;;;;;15.37;11.67;;;27.40;27.20;;;;;;7374153;19;20472;-39
2022/04/22 13:37:02;;;;;;;11.50;9.60;;;26.70;28.00;;;;;;7373592;19;20727;-39
2022/04/22 13:39:34;;;;;;;10.73;8.60;;;26.50;28.50;;;;;;7376242;19;20372;-48
2022/04/22 13:42:08;;;;;;;7.47;6.67;;;26.30;29.10;;;;;;7376802;19;21499;-48
2022/04/22 13:52:50;;;;;;;11.70;10.40;;;25.40;29.80;;;;;;7376401;19;20375;-48
2022/04/22 13:55:19;;;;;;;11.40;9.40;;;25.00;30.60;;;;;;7376524;19;20372;-47
2022/04/22 13:57:51;;;;;;;10.03;9.03;;;24.70;30.60;;;;;;7373892;19;21180;-48
2022/04/22 14:00:21;;;;;;;9.17;8.00;;;24.60;30.60;;;;;;7375797;19;21014;-48
2022/04/22 14:02:51;;;;;;;9.00;8.00;;;24.30;31.20;;;;;;7377197;19;20380;-48
2022/04/22 14:05:25;;;;;;;9.50;8.67;;;24.30;31.90;;;;;;7376034;19;20410;-48
2022/04/22 14:07:56;;;;;;;10.57;9.57;;;24.40;31.60;;;;;;7376746;19;20396;-48
2022/04/22 14:10:26;;;;;;;12.60;10.80;;;24.50;31.90;;;;;;7376324;19;20376;-48
2022/04/22 14:12:58;;;;;;;11.00;9.50;;;24.60;31.40;;;;;;7371894;19;20408;-49
2022/04/22 14:15:28;;;;;;;10.43;9.33;;;24.40;31.30;;;;;;7376774;19;20391;-48
2022/04/22 14:17:57;;;;;;;9.53;8.67;;;24.40;31.60;;;;;;7373532;19;20436;-48
2022/04/22 14:20:27;;;;;;;8.07;7.37;;;24.50;31.80;;;;;;7374578;19;20420;-48
2022/04/22 14:22:59;;;;;;;9.53;8.53;;;24.40;31.70;;;;;;7375864;19;20387;-48